DLH637 EHAM-EDDF
Flight info
| Callsign | DLH637 |
|---|---|
| Flight time | N/A |
| Altitude | 35000 |
| Route | EDUPO Z739 MISGO DCT DIXAT DIXAT1A |
| Aircraft | A359/H-SDE2E3GHIJ3J4J5LM1ORWXY/LB1D1 |
Departure
| Time | 2026-05-04 15:54 |
|---|---|
| Airport | Amsterdam Airport Schiphol (EHAM) |
Arrival
| Time | N/A |
|---|---|
| Airport | Frankfurt Main Airport (EDDF) |
| Time | Latitude | Longitude | Altitude | Speed | Heading |
|---|---|---|---|---|---|
| 2026-05-04 15:00 | 52.31261 | 4.76618 | 6 ft | 0 kts | 123° |
| 2026-05-04 15:32 | 52.31266 | 4.76606 | 6 ft | 4 kts | 122° |
| 2026-05-04 15:32 | 52.31295 | 4.76532 | 7 ft | 4 kts | 133° |
| 2026-05-04 15:33 | 52.31330 | 4.76517 | 9 ft | 2 kts | 214° |
| 2026-05-04 15:34 | 52.31390 | 4.76567 | 7 ft | 4 kts | 175° |
| 2026-05-04 15:34 | 52.31370 | 4.76556 | 7 ft | 4 kts | 208° |
| 2026-05-04 15:34 | 52.31337 | 4.76489 | 8 ft | 4 kts | 249° |
| 2026-05-04 15:35 | 52.31360 | 4.76426 | 5 ft | 4 kts | 334° |
| 2026-05-04 15:35 | 52.31372 | 4.76420 | 5 ft | 4 kts | 342° |
| 2026-05-04 15:38 | 52.31414 | 4.76399 | 5 ft | 19 kts | 343° |
| 2026-05-04 15:38 | 52.31472 | 4.76432 | 5 ft | 8 kts | 50° |
| 2026-05-04 15:38 | 52.31523 | 4.76514 | 5 ft | 13 kts | 41° |
| 2026-05-04 15:39 | 52.31594 | 4.76633 | 5 ft | 16 kts | 48° |
| 2026-05-04 15:39 | 52.31617 | 4.76693 | 5 ft | 0 kts | 63° |
| 2026-05-04 15:39 | 52.31625 | 4.76718 | 5 ft | 14 kts | 63° |
| 2026-05-04 15:40 | 52.31667 | 4.76886 | 4 ft | 15 kts | 87° |
| 2026-05-04 15:40 | 52.31632 | 4.77043 | 5 ft | 16 kts | 115° |
| 2026-05-04 15:40 | 52.31607 | 4.77127 | 5 ft | 0 kts | 118° |
| 2026-05-04 15:41 | 52.31603 | 4.77136 | 5 ft | 3 kts | 122° |
| 2026-05-04 15:41 | 52.31600 | 4.77144 | 5 ft | 0 kts | 124° |
| 2026-05-04 15:41 | 52.31591 | 4.77150 | 5 ft | 5 kts | 155° |
| 2026-05-04 15:42 | 52.31575 | 4.77123 | 5 ft | 8 kts | 234° |
| 2026-05-04 15:42 | 52.31559 | 4.76944 | 5 ft | 22 kts | 276° |
| 2026-05-04 15:42 | 52.31555 | 4.76686 | 5 ft | 24 kts | 265° |
| 2026-05-04 15:42 | 52.31546 | 4.76451 | 6 ft | 21 kts | 267° |
| 2026-05-04 15:43 | 52.31537 | 4.76203 | 5 ft | 23 kts | 266° |
| 2026-05-04 15:43 | 52.31528 | 4.75926 | 5 ft | 26 kts | 267° |
| 2026-05-04 15:43 | 52.31519 | 4.75664 | 5 ft | 20 kts | 267° |
| 2026-05-04 15:43 | 52.31511 | 4.75417 | 5 ft | 23 kts | 267° |
| 2026-05-04 15:44 | 52.31509 | 4.75330 | 3 ft | 0 kts | 255° |
| 2026-05-04 15:44 | 52.31509 | 4.75328 | 3 ft | 0 kts | 258° |
| 2026-05-04 15:44 | 52.31509 | 4.75327 | 3 ft | 0 kts | 257° |
| 2026-05-04 15:44 | 52.31510 | 4.75325 | 1 ft | 0 kts | 261° |
| 2026-05-04 15:45 | 52.31505 | 4.75282 | 5 ft | 0 kts | 264° |
| 2026-05-04 15:45 | 52.31503 | 4.75213 | 5 ft | 12 kts | 267° |
| 2026-05-04 15:45 | 52.31499 | 4.75066 | 5 ft | 14 kts | 267° |
| 2026-05-04 15:46 | 52.31493 | 4.74886 | 5 ft | 17 kts | 267° |
| 2026-05-04 15:46 | 52.31487 | 4.74674 | 5 ft | 20 kts | 268° |
| 2026-05-04 15:46 | 52.31479 | 4.74439 | 5 ft | 19 kts | 266° |
| 2026-05-04 15:46 | 52.31495 | 4.74325 | 5 ft | 7 kts | 319° |
| 2026-05-04 15:47 | 52.31580 | 4.74300 | 5 ft | 16 kts | 3° |
| 2026-05-04 15:47 | 52.31701 | 4.74312 | 5 ft | 19 kts | 3° |
| 2026-05-04 15:47 | 52.31847 | 4.74326 | 5 ft | 22 kts | 3° |
| 2026-05-04 15:47 | 52.31994 | 4.74340 | 5 ft | 12 kts | 2° |
| 2026-05-04 15:48 | 52.32020 | 4.74298 | 5 ft | 7 kts | 284° |
| 2026-05-04 15:48 | 52.32034 | 4.74116 | 5 ft | 21 kts | 273° |
| 2026-05-04 15:48 | 52.32052 | 4.73659 | 6 ft | 21 kts | 274° |
| 2026-05-04 15:49 | 52.32064 | 4.73440 | 5 ft | 19 kts | 285° |
| 2026-05-04 15:49 | 52.32147 | 4.73270 | 5 ft | 21 kts | 318° |
| 2026-05-04 15:49 | 52.32251 | 4.73127 | 5 ft | 19 kts | 320° |
| 2026-05-04 15:49 | 52.32359 | 4.72977 | 5 ft | 22 kts | 320° |
| 2026-05-04 15:50 | 52.32481 | 4.72810 | 5 ft | 24 kts | 320° |
| 2026-05-04 15:50 | 52.32615 | 4.72621 | 5 ft | 27 kts | 319° |
| 2026-05-04 15:50 | 52.32741 | 4.72408 | 5 ft | 26 kts | 310° |
| 2026-05-04 15:50 | 52.32865 | 4.72174 | 5 ft | 28 kts | 312° |
| 2026-05-04 15:51 | 52.32997 | 4.71930 | 5 ft | 29 kts | 311° |
| 2026-05-04 15:51 | 52.33112 | 4.71715 | 5 ft | 14 kts | 309° |
| 2026-05-04 15:51 | 52.33142 | 4.71550 | 5 ft | 20 kts | 257° |
| 2026-05-04 15:51 | 52.33028 | 4.71349 | 5 ft | 26 kts | 220° |
| 2026-05-04 15:52 | 52.32914 | 4.71187 | 5 ft | 20 kts | 221° |
| 2026-05-04 15:52 | 52.32866 | 4.71081 | 5 ft | 5 kts | 256° |
| 2026-05-04 15:52 | 52.32866 | 4.71078 | 5 ft | 0 kts | 262° |
| 2026-05-04 15:53 | 52.32864 | 4.71015 | 4 ft | 15 kts | 268° |
| 2026-05-04 15:53 | 52.32899 | 4.70907 | 4 ft | 9 kts | 345° |
| 2026-05-04 15:53 | 52.32977 | 4.70903 | 3 ft | 14 kts | 2° |
| 2026-05-04 15:54 | 52.33207 | 4.70924 | 2 ft | 70 kts | 3° |
| 2026-05-04 15:54 | 52.33959 | 4.70992 | 6 ft | 144 kts | 3° |
| 2026-05-04 15:54 | 52.35007 | 4.71091 | 120 ft | 190 kts | 4° |
| 2026-05-04 15:54 | 52.36384 | 4.71278 | 739 ft | 207 kts | 5° |
| 2026-05-04 15:55 | 52.37875 | 4.71510 | 1454 ft | 229 kts | 6° |
| 2026-05-04 15:55 | 52.39536 | 4.71743 | 2201 ft | 247 kts | 3° |
| 2026-05-04 15:55 | 52.41261 | 4.71869 | 3250 ft | 249 kts | 3° |
| 2026-05-04 15:55 | 52.42951 | 4.72601 | 4200 ft | 255 kts | 26° |
| 2026-05-04 15:56 | 52.44530 | 4.73992 | 5103 ft | 261 kts | 30° |
| 2026-05-04 15:56 | 52.46113 | 4.75519 | 6052 ft | 266 kts | 32° |
| 2026-05-04 15:56 | 52.47472 | 4.77589 | 7029 ft | 271 kts | 54° |
| 2026-05-04 15:56 | 52.48190 | 4.80457 | 8043 ft | 275 kts | 80° |
| 2026-05-04 15:57 | 52.48398 | 4.83585 | 9061 ft | 279 kts | 86° |
| 2026-05-04 15:57 | 52.48524 | 4.86797 | 10078 ft | 284 kts | 88° |
| 2026-05-04 15:57 | 52.48327 | 4.90089 | 10760 ft | 302 kts | 106° |
| 2026-05-04 15:57 | 52.47304 | 4.93106 | 11222 ft | 324 kts | 133° |
| 2026-05-04 15:58 | 52.47138 | 4.93395 | 11265 ft | 327 kts | 135° |
| 2026-05-04 15:58 | 52.46987 | 4.93635 | 11311 ft | 329 kts | 137° |
| 2026-05-04 15:58 | 52.45175 | 4.96050 | 11947 ft | 343 kts | 139° |
| 2026-05-04 15:58 | 52.43525 | 4.98924 | 12802 ft | 350 kts | 130° |
| 2026-05-04 15:59 | 52.41960 | 5.02045 | 13653 ft | 357 kts | 129° |
| 2026-05-04 15:59 | 52.40387 | 5.05258 | 14467 ft | 364 kts | 129° |
| 2026-05-04 15:59 | 52.38769 | 5.08503 | 15251 ft | 371 kts | 130° |
| 2026-05-04 15:59 | 52.37127 | 5.11705 | 16051 ft | 376 kts | 130° |
| 2026-05-04 16:00 | 52.35410 | 5.14969 | 16859 ft | 380 kts | 131° |
| 2026-05-04 16:00 | 52.33663 | 5.18237 | 17674 ft | 384 kts | 131° |
| 2026-05-04 16:00 | 52.31883 | 5.21535 | 18494 ft | 389 kts | 131° |
| 2026-05-04 16:00 | 52.30077 | 5.24868 | 19293 ft | 393 kts | 131° |
| 2026-05-04 16:01 | 52.28256 | 5.28226 | 20087 ft | 398 kts | 131° |
| 2026-05-04 16:01 | 52.26399 | 5.31647 | 20862 ft | 403 kts | 131° |
| 2026-05-04 16:01 | 52.24544 | 5.35064 | 21621 ft | 407 kts | 131° |
| 2026-05-04 16:01 | 52.22648 | 5.38555 | 22330 ft | 412 kts | 131° |
| 2026-05-04 16:02 | 52.20734 | 5.42078 | 23013 ft | 417 kts | 131° |
| 2026-05-04 16:02 | 52.18798 | 5.45633 | 23672 ft | 423 kts | 131° |
| 2026-05-04 16:02 | 52.14848 | 5.52877 | 24820 ft | 430 kts | 131° |
| 2026-05-04 16:03 | 52.12883 | 5.56472 | 24978 ft | 431 kts | 131° |
| 2026-05-04 16:03 | 52.10887 | 5.60119 | 25003 ft | 433 kts | 132° |
| 2026-05-04 16:03 | 52.08880 | 5.63780 | 25001 ft | 434 kts | 132° |
| 2026-05-04 16:03 | 52.06864 | 5.67453 | 25002 ft | 435 kts | 132° |
| 2026-05-04 16:04 | 52.04851 | 5.71113 | 25003 ft | 435 kts | 132° |
| 2026-05-04 16:04 | 52.00818 | 5.78430 | 24999 ft | 435 kts | 132° |
| 2026-05-04 16:04 | 51.98798 | 5.82087 | 24999 ft | 435 kts | 132° |
| 2026-05-04 16:05 | 51.96809 | 5.85684 | 24999 ft | 435 kts | 132° |
| 2026-05-04 16:05 | 51.94791 | 5.89326 | 24999 ft | 435 kts | 132° |
| 2026-05-04 16:05 | 51.90751 | 5.96606 | 24999 ft | 435 kts | 132° |
| 2026-05-04 16:06 | 51.88724 | 6.00248 | 24999 ft | 435 kts | 132° |
| 2026-05-04 16:06 | 51.83346 | 6.09925 | 24999 ft | 435 kts | 131° |
| 2026-05-04 16:07 | 51.80700 | 6.14784 | 24999 ft | 435 kts | 131° |
| 2026-05-04 16:07 | 51.74721 | 6.25799 | 25000 ft | 435 kts | 131° |
| 2026-05-04 16:08 | 51.72725 | 6.29449 | 25003 ft | 435 kts | 131° |
| 2026-05-04 16:08 | 51.66708 | 6.40390 | 24999 ft | 435 kts | 131° |
| 2026-05-04 16:09 | 51.62724 | 6.47611 | 24999 ft | 435 kts | 131° |
| 2026-05-04 16:09 | 51.58708 | 6.54880 | 24999 ft | 435 kts | 132° |
| 2026-05-04 16:10 | 51.54681 | 6.62133 | 24999 ft | 434 kts | 132° |
| 2026-05-04 16:11 | 51.48634 | 6.72988 | 24999 ft | 434 kts | 132° |
| 2026-05-04 16:11 | 51.46619 | 6.76598 | 24999 ft | 434 kts | 132° |
| 2026-05-04 16:12 | 51.40594 | 6.87361 | 25002 ft | 435 kts | 132° |
| 2026-05-04 16:12 | 51.34908 | 6.98664 | 25000 ft | 435 kts | 128° |
| 2026-05-04 16:13 | 51.31158 | 7.06258 | 24999 ft | 435 kts | 128° |
| 2026-05-04 16:13 | 51.27228 | 7.13587 | 24999 ft | 436 kts | 137° |
| 2026-05-04 16:14 | 51.22204 | 7.18773 | 24997 ft | 435 kts | 154° |
| 2026-05-04 16:14 | 51.16774 | 7.23031 | 24998 ft | 435 kts | 154° |
| 2026-05-04 16:15 | 51.08652 | 7.29487 | 24998 ft | 435 kts | 153° |
| 2026-05-04 16:16 | 51.03281 | 7.33928 | 25003 ft | 435 kts | 153° |
| 2026-05-04 16:16 | 50.95262 | 7.40540 | 24998 ft | 435 kts | 153° |
| 2026-05-04 16:17 | 50.89884 | 7.44955 | 24999 ft | 435 kts | 153° |
| 2026-05-04 16:18 | 50.81823 | 7.51551 | 25003 ft | 435 kts | 153° |
| 2026-05-04 16:18 | 50.79135 | 7.53740 | 25001 ft | 435 kts | 153° |
| 2026-05-04 16:19 | 50.71101 | 7.60271 | 25009 ft | 435 kts | 153° |
| 2026-05-04 16:19 | 50.65725 | 7.64630 | 25002 ft | 435 kts | 153° |